Manes, Missouri
Current Conditions -  °F | °C
As of 2:58 PM on Tuesday 27 Jan 2015 (Local Time) from KTBN Reporting Station
Clear Clear  
Wind Chill: 52°   Ceiling: Unl
Heat Index: 52°   Visibility: 10mi
Dew Point: 31°   Wind: 3mph
Humidity: 44%   Direction: NA
Pressure: 30.11"   Gusts: NA
Location:  37.2656°N, 92.3257°W
Report Text: KTBN 272058Z AUTO VRB03KT 10SM CLR 11/M01 A3011 RMK AO2 SLP202 T01131006
Loading
Personal Weather Stations






























Interactive Weather Map New forecast layout! Learn more

10-Day Weather Forecast

Advertisements
Track Severe Weather on mobile